createdAt,value
2022-12-13T00:00:23.663Z,-7.48
2022-12-13T00:01:23.578Z,-7.48
2022-12-13T00:02:23.522Z,-7.50
2022-12-13T00:03:23.388Z,-7.59
2022-12-13T00:04:23.361Z,-7.55
2022-12-13T00:05:23.207Z,-7.59
2022-12-13T00:06:23.113Z,-7.61
2022-12-13T00:07:23.024Z,-7.69
2022-12-13T00:08:22.981Z,-7.57
2022-12-13T00:09:22.849Z,-7.69
2022-12-13T00:10:22.750Z,-7.67
2022-12-13T00:11:22.662Z,-7.75
2022-12-13T00:12:22.580Z,-7.68
2022-12-13T00:13:22.485Z,-7.62
2022-12-13T00:14:22.391Z,-7.59
2022-12-13T00:15:22.298Z,-7.79
2022-12-13T00:16:22.244Z,-7.86
2022-12-13T00:17:22.112Z,-7.82
2022-12-13T00:18:22.026Z,-7.80
2022-12-13T00:19:21.933Z,-7.73
2022-12-13T00:20:21.840Z,-7.75
2022-12-13T00:21:21.749Z,-7.72
2022-12-13T00:22:21.662Z,-7.79
2022-12-13T00:23:21.574Z,-7.75
2022-12-13T00:24:21.477Z,-7.68
2022-12-13T00:25:21.418Z,-7.79
2022-12-13T00:26:21.297Z,-7.62
2022-12-13T00:27:21.200Z,-7.78
2022-12-13T00:28:21.117Z,-7.75
2022-12-13T00:29:21.021Z,-7.78
2022-12-13T00:30:20.933Z,-7.61
2022-12-13T00:31:53.550Z,-7.78
2022-12-13T00:32:20.795Z,-7.57
2022-12-13T00:33:20.654Z,-7.57
2022-12-13T00:34:20.563Z,-7.75
2022-12-13T00:35:20.472Z,-7.68
2022-12-13T00:36:20.384Z,-7.67
2022-12-13T00:37:20.293Z,-7.65
2022-12-13T00:38:20.199Z,-7.72
2022-12-13T00:39:20.105Z,-7.65
2022-12-13T00:40:20.020Z,-7.57
2022-12-13T00:41:19.930Z,-7.61
2022-12-13T00:42:19.833Z,-7.73
2022-12-13T00:43:19.746Z,-7.75
2022-12-13T00:44:19.661Z,-7.73
2022-12-13T00:45:19.560Z,-7.76
2022-12-13T00:46:19.500Z,-7.75
2022-12-13T00:47:19.375Z,-7.78
2022-12-13T00:48:19.294Z,-7.62
2022-12-13T00:49:19.197Z,-7.64
2022-12-13T00:50:19.127Z,-7.79
2022-12-13T00:51:19.012Z,-7.82
2022-12-13T00:52:18.921Z,-7.75
2022-12-13T00:53:18.838Z,-7.80
2022-12-13T00:54:18.747Z,-7.67
2022-12-13T00:55:18.645Z,-7.76
2022-12-13T00:56:18.555Z,-7.82
2022-12-13T00:57:18.470Z,-7.78
2022-12-13T00:58:18.372Z,-7.73
2022-12-13T00:59:18.288Z,-7.79
2022-12-13T01:00:18.193Z,-7.79
2022-12-13T01:01:18.167Z,-7.88
2022-12-13T01:02:18.013Z,-7.85
2022-12-13T01:03:17.949Z,-7.96
2022-12-13T01:04:17.826Z,-7.86
2022-12-13T01:05:38.629Z,-7.85
2022-12-13T01:06:17.919Z,-7.86
2022-12-13T01:07:17.559Z,-7.90
2022-12-13T01:08:17.539Z,-7.88
2022-12-13T01:09:17.377Z,-7.91
2022-12-13T01:10:17.281Z,-7.96
2022-12-13T01:11:17.186Z,-7.91
2022-12-13T01:12:17.102Z,-7.93
2022-12-13T01:13:17.004Z,-7.90
2022-12-13T01:14:16.916Z,-7.97
2022-12-13T01:15:17.076Z,-7.97
2022-12-13T01:16:16.829Z,-8.05
2022-12-13T01:17:16.638Z,-7.97
2022-12-13T01:18:16.553Z,-8.05
2022-12-13T01:19:16.454Z,-8.15
2022-12-13T01:20:16.370Z,-8.15
2022-12-13T01:21:16.278Z,-8.07
2022-12-13T01:22:16.183Z,-8.08
2022-12-13T01:23:16.088Z,-7.98
2022-12-13T01:24:16.004Z,-8.01
2022-12-13T01:25:16.107Z,-7.93
2022-12-13T01:26:15.817Z,-7.96
2022-12-13T01:27:15.723Z,-7.96
2022-12-13T01:28:15.638Z,-7.98
2022-12-13T01:29:15.547Z,-7.90
2022-12-13T01:30:15.451Z,-7.93
2022-12-13T01:31:15.440Z,-7.93
2022-12-13T01:32:15.268Z,-7.91
2022-12-13T01:33:15.176Z,-7.93
2022-12-13T01:34:15.089Z,-7.96
2022-12-13T01:35:15.137Z,-7.98
2022-12-13T01:36:14.930Z,-7.96
2022-12-13T01:37:14.811Z,-7.98
2022-12-13T01:38:15.651Z,-7.97
2022-12-13T01:39:15.672Z,-8.08
2022-12-13T01:40:16.044Z,-7.96
2022-12-13T01:41:17.345Z,-8.05
2022-12-13T01:42:14.362Z,-7.98
2022-12-13T01:43:14.807Z,-8.10
2022-12-13T01:44:14.172Z,-8.13
2022-12-13T01:45:14.402Z,-8.02
2022-12-13T01:46:14.027Z,-8.12
2022-12-13T01:47:13.916Z,-8.16
2022-12-13T01:48:13.807Z,-8.22
2022-12-13T01:49:19.372Z,-8.19
2022-12-13T01:50:13.621Z,-8.19
2022-12-13T01:51:13.536Z,-8.22
2022-12-13T01:52:13.439Z,-8.28
2022-12-13T01:53:13.346Z,-8.15
2022-12-13T01:54:13.266Z,-8.30
2022-12-13T01:55:13.166Z,-8.23
2022-12-13T01:56:13.077Z,-8.22
2022-12-13T01:57:12.985Z,-8.22
2022-12-13T01:58:12.897Z,-8.16
2022-12-13T01:59:12.809Z,-8.16
2022-12-13T02:00:12.707Z,-8.20
2022-12-13T02:01:12.660Z,-8.12
2022-12-13T02:02:12.531Z,-8.20
2022-12-13T02:03:21.449Z,-8.15
2022-12-13T02:04:12.349Z,-8.19
2022-12-13T02:05:12.513Z,-8.10
2022-12-13T02:06:12.159Z,-8.20
2022-12-13T02:07:12.067Z,-8.18
2022-12-13T02:08:12.001Z,-8.22
2022-12-13T02:09:11.885Z,-8.16
2022-12-13T02:10:11.797Z,-8.13
2022-12-13T02:11:11.704Z,-8.15
2022-12-13T02:12:11.613Z,-8.15
2022-12-13T02:13:11.519Z,-8.16
2022-12-13T02:14:11.426Z,-8.23
2022-12-13T02:15:11.333Z,-8.19
2022-12-13T02:16:11.271Z,-8.22
2022-12-13T02:17:11.152Z,-8.26
2022-12-13T02:18:11.060Z,-8.25
2022-12-13T02:19:10.970Z,-8.36
2022-12-13T02:20:10.934Z,-8.41
2022-12-13T02:21:10.788Z,-8.43
2022-12-13T02:22:10.700Z,-8.41
2022-12-13T02:23:10.608Z,-8.41
2022-12-13T02:24:10.512Z,-8.43
2022-12-13T02:25:10.418Z,-8.46
2022-12-13T02:26:10.335Z,-8.38
2022-12-13T02:27:10.283Z,-8.43
2022-12-13T02:28:30.471Z,-8.34
2022-12-13T02:29:10.054Z,-8.34
2022-12-13T02:30:09.962Z,-8.36
2022-12-13T02:31:09.985Z,-8.36
2022-12-13T02:32:09.782Z,-8.43
2022-12-13T02:33:09.689Z,-8.38
2022-12-13T02:34:09.595Z,-8.34
2022-12-13T02:35:09.501Z,-8.43
2022-12-13T02:36:09.420Z,-8.34
2022-12-13T02:37:17.625Z,-8.34
2022-12-13T02:38:09.233Z,-8.44
2022-12-13T02:39:09.140Z,-8.43
2022-12-13T02:40:09.047Z,-8.43
2022-12-13T02:41:08.958Z,-8.43
2022-12-13T02:42:08.863Z,-8.38
2022-12-13T02:43:08.769Z,-8.38
2022-12-13T02:44:22.546Z,-8.37
2022-12-13T02:45:08.591Z,-8.26
2022-12-13T02:46:08.624Z,-8.34
2022-12-13T02:47:12.392Z,-8.25
2022-12-13T02:48:08.314Z,-8.19
2022-12-13T02:49:08.220Z,-8.36
2022-12-13T02:50:08.132Z,-8.41
2022-12-13T02:51:08.040Z,-8.44
2022-12-13T02:52:07.953Z,-8.48
2022-12-13T02:53:07.855Z,-8.41
2022-12-13T02:54:07.775Z,-8.43
2022-12-13T02:55:07.670Z,-8.46
2022-12-13T02:56:07.584Z,-8.44
2022-12-13T02:57:07.487Z,-8.59
2022-12-13T02:58:07.398Z,-8.44
2022-12-13T02:59:07.305Z,-8.55
2022-12-13T03:00:07.226Z,-8.58
2022-12-13T03:01:07.123Z,-8.59
2022-12-13T03:02:09.896Z,-8.54
2022-12-13T03:03:07.119Z,-8.49
2022-12-13T03:04:06.849Z,-8.66
2022-12-13T03:05:06.756Z,-8.62
2022-12-13T03:06:06.663Z,-8.57
2022-12-13T03:07:06.571Z,-8.66
2022-12-13T03:08:06.604Z,-8.62
2022-12-13T03:09:06.391Z,-8.64
2022-12-13T03:10:06.299Z,-8.61
2022-12-13T03:11:06.207Z,-8.44
2022-12-13T03:12:06.119Z,-8.68
2022-12-13T03:13:06.028Z,-8.57
2022-12-13T03:14:05.931Z,-8.57
2022-12-13T03:15:05.845Z,-8.68
2022-12-13T03:16:05.779Z,-8.55
2022-12-13T03:17:05.655Z,-8.57
2022-12-13T03:18:05.565Z,-8.48
2022-12-13T03:19:05.478Z,-8.54
2022-12-13T03:20:12.977Z,-8.51
2022-12-13T03:21:05.291Z,-8.52
2022-12-13T03:22:05.201Z,-8.59
2022-12-13T03:23:05.105Z,-8.64
2022-12-13T03:24:05.038Z,-8.75
2022-12-13T03:25:04.928Z,-8.58
2022-12-13T03:26:04.834Z,-8.73
2022-12-13T03:27:04.737Z,-8.70
2022-12-13T03:28:04.650Z,-8.70
2022-12-13T03:29:04.560Z,-8.78
2022-12-13T03:30:04.462Z,-8.70
2022-12-13T03:31:04.425Z,-8.76
2022-12-13T03:32:04.284Z,-8.80
2022-12-13T03:33:04.188Z,-8.70
2022-12-13T03:34:04.097Z,-8.76
2022-12-13T03:35:04.005Z,-8.78
2022-12-13T03:36:03.920Z,-8.73
2022-12-13T03:37:03.819Z,-8.73
2022-12-13T03:38:03.736Z,-8.75
2022-12-13T03:39:03.638Z,-8.61
2022-12-13T03:40:03.548Z,-8.68
2022-12-13T03:41:03.461Z,-8.76
2022-12-13T03:42:03.366Z,-8.72
2022-12-13T03:43:03.271Z,-8.75
2022-12-13T03:44:03.182Z,-8.78
2022-12-13T03:45:03.087Z,-8.73
2022-12-13T03:46:03.077Z,-8.78
2022-12-13T03:47:02.904Z,-8.76
2022-12-13T03:48:02.812Z,-8.73
2022-12-13T03:49:02.717Z,-8.79
2022-12-13T03:50:25.631Z,-8.72
2022-12-13T03:51:02.539Z,-8.72
2022-12-13T03:52:02.445Z,-8.76
2022-12-13T03:53:02.355Z,-8.76
2022-12-13T03:54:02.261Z,-8.69
2022-12-13T03:55:02.172Z,-8.69
2022-12-13T03:56:02.088Z,-8.73
2022-12-13T03:57:01.984Z,-8.79
2022-12-13T03:58:07.590Z,-8.72
2022-12-13T03:59:01.802Z,-8.73
2022-12-13T04:00:01.709Z,-8.72
2022-12-13T04:01:01.616Z,-8.76
2022-12-13T04:02:01.588Z,-8.73
2022-12-13T04:03:01.472Z,-8.76
2022-12-13T04:04:01.342Z,-8.78
2022-12-13T04:05:01.251Z,-8.70
2022-12-13T04:06:01.172Z,-8.75
2022-12-13T04:07:01.067Z,-8.68
2022-12-13T04:08:01.196Z,-8.73
2022-12-13T04:09:00.881Z,-8.69
2022-12-13T04:10:00.791Z,-8.75
2022-12-13T04:11:00.699Z,-8.76
2022-12-13T04:12:00.607Z,-8.73
2022-12-13T04:13:00.645Z,-8.70
2022-12-13T04:14:00.424Z,-8.75
2022-12-13T04:15:00.331Z,-8.75
2022-12-13T04:16:00.372Z,-8.72
2022-12-13T04:17:00.150Z,-8.82
2022-12-13T04:18:00.080Z,-8.91
2022-12-13T04:18:59.961Z,-8.88
2022-12-13T04:19:59.875Z,-8.96
2022-12-13T04:20:59.780Z,-8.94
2022-12-13T04:21:59.687Z,-8.94
2022-12-13T04:22:59.598Z,-8.91
2022-12-13T04:24:00.943Z,-8.96
2022-12-13T04:24:59.416Z,-8.91
2022-12-13T04:25:59.323Z,-8.91
2022-12-13T04:26:59.232Z,-8.88
2022-12-13T04:27:59.142Z,-8.87
2022-12-13T04:28:59.051Z,-8.86
2022-12-13T04:29:58.955Z,-8.82
2022-12-13T04:30:58.863Z,-8.76
2022-12-13T04:31:58.774Z,-8.79
2022-12-13T04:32:58.677Z,-8.76
2022-12-13T04:33:58.588Z,-8.79
2022-12-13T04:35:00.996Z,-8.83
2022-12-13T04:35:58.405Z,-8.91
2022-12-13T04:36:58.311Z,-8.91
2022-12-13T04:37:58.226Z,-8.88
2022-12-13T04:38:58.128Z,-8.93
2022-12-13T04:40:00.463Z,-8.97
2022-12-13T04:40:57.945Z,-8.90
2022-12-13T04:41:57.858Z,-8.94
2022-12-13T04:42:57.761Z,-9.00
2022-12-13T04:43:57.676Z,-9.08
2022-12-13T04:44:57.581Z,-9.01
2022-12-13T04:45:57.550Z,-8.98
2022-12-13T04:47:00.912Z,-9.09
2022-12-13T04:47:57.298Z,-9.00
2022-12-13T04:48:57.211Z,-9.14
2022-12-13T04:49:57.112Z,-9.07
2022-12-13T04:50:57.031Z,-9.12
2022-12-13T04:52:00.870Z,-9.17
2022-12-13T04:52:56.842Z,-9.17
2022-12-13T04:53:56.748Z,-9.11
2022-12-13T04:54:56.658Z,-9.15
2022-12-13T04:55:56.566Z,-9.18
2022-12-13T04:56:56.473Z,-9.15
2022-12-13T04:57:56.384Z,-9.19
2022-12-13T04:58:56.297Z,-9.26
2022-12-13T04:59:56.198Z,-9.32
2022-12-13T05:00:56.154Z,-9.25
2022-12-13T05:01:56.077Z,-9.19
2022-12-13T05:02:56.016Z,-9.15
2022-12-13T05:03:55.828Z,-9.14
2022-12-13T05:04:55.736Z,-9.19
2022-12-13T05:05:55.646Z,-9.04
2022-12-13T05:06:55.553Z,-9.05
2022-12-13T05:07:55.533Z,-9.11
2022-12-13T05:09:01.009Z,-9.04
2022-12-13T05:09:55.275Z,-9.12
2022-12-13T05:10:55.186Z,-9.08
2022-12-13T05:12:01.677Z,-9.01
2022-12-13T05:12:55.006Z,-9.07
2022-12-13T05:13:54.909Z,-9.07
2022-12-13T05:14:54.818Z,-9.15
2022-12-13T05:15:55.304Z,-9.12
2022-12-13T05:16:54.673Z,-9.21
2022-12-13T05:17:54.543Z,-9.15
2022-12-13T05:18:54.451Z,-9.14
2022-12-13T05:19:54.357Z,-9.12
2022-12-13T05:20:54.271Z,-9.18
2022-12-13T05:21:54.169Z,-9.08
2022-12-13T05:22:54.083Z,-9.11
2022-12-13T05:23:53.987Z,-9.07
2022-12-13T05:24:53.900Z,-9.09
2022-12-13T05:25:53.805Z,-9.01
2022-12-13T05:26:53.714Z,-9.04
2022-12-13T05:27:57.720Z,-9.08
2022-12-13T05:28:53.528Z,-9.14
2022-12-13T05:30:03.719Z,-9.05
2022-12-13T05:30:53.348Z,-9.05
2022-12-13T05:31:53.316Z,-9.09
2022-12-13T05:32:53.162Z,-9.07
2022-12-13T05:33:53.069Z,-9.19
2022-12-13T05:34:52.980Z,-9.18
2022-12-13T05:35:56.331Z,-9.18
2022-12-13T05:36:52.793Z,-9.14
2022-12-13T05:37:54.168Z,-9.04
2022-12-13T05:38:52.606Z,-9.11
2022-12-13T05:39:52.516Z,-9.15
2022-12-13T05:40:52.429Z,-9.19
2022-12-13T05:41:52.328Z,-9.15
2022-12-13T05:42:52.244Z,-9.11
2022-12-13T05:43:52.148Z,-9.15
2022-12-13T05:44:52.053Z,-9.11
2022-12-13T05:45:51.981Z,-9.17
2022-12-13T05:46:51.873Z,-9.18
2022-12-13T05:47:51.778Z,-9.23
2022-12-13T05:48:51.686Z,-9.25
2022-12-13T05:49:51.600Z,-9.30
2022-12-13T05:50:51.504Z,-9.32
2022-12-13T05:51:51.410Z,-9.18
2022-12-13T05:52:51.317Z,-9.19
2022-12-13T05:53:53.446Z,-9.23
2022-12-13T05:54:51.132Z,-9.30
2022-12-13T05:55:51.044Z,-9.30
2022-12-13T05:56:50.954Z,-9.21
2022-12-13T05:57:51.269Z,-9.19
2022-12-13T05:58:53.620Z,-9.29
2022-12-13T05:59:50.676Z,-9.28
2022-12-13T06:00:50.586Z,-9.29
2022-12-13T06:01:50.490Z,-9.35
2022-12-13T06:02:50.567Z,-9.29
2022-12-13T06:03:50.416Z,-9.25
2022-12-13T06:04:50.214Z,-9.29
2022-12-13T06:05:50.122Z,-9.28
2022-12-13T06:06:51.160Z,-9.28
2022-12-13T06:07:55.105Z,-9.33
2022-12-13T06:08:49.877Z,-9.21
2022-12-13T06:09:49.754Z,-9.28
2022-12-13T06:10:49.662Z,-9.29
2022-12-13T06:11:49.567Z,-9.36
2022-12-13T06:12:49.475Z,-9.33
2022-12-13T06:13:49.386Z,-9.41
2022-12-13T06:14:49.296Z,-9.33
2022-12-13T06:15:49.196Z,-9.47
2022-12-13T06:16:49.136Z,-9.41
2022-12-13T06:17:49.014Z,-9.36
2022-12-13T06:18:50.514Z,-9.38
2022-12-13T06:19:48.835Z,-9.38
2022-12-13T06:20:48.741Z,-9.36
2022-12-13T06:21:48.644Z,-9.36
2022-12-13T06:22:48.556Z,-9.35
2022-12-13T06:23:48.463Z,-9.35
2022-12-13T06:24:48.370Z,-9.38
2022-12-13T06:25:51.665Z,-9.35
2022-12-13T06:26:48.284Z,-9.41
2022-12-13T06:27:48.098Z,-9.35
2022-12-13T06:28:48.006Z,-9.29
2022-12-13T06:29:47.911Z,-9.41
2022-12-13T06:30:47.873Z,-9.35
2022-12-13T06:31:47.731Z,-9.45
2022-12-13T06:32:47.637Z,-9.35
2022-12-13T06:33:47.539Z,-9.49
2022-12-13T06:34:47.458Z,-9.49
2022-12-13T06:35:47.364Z,-9.55
2022-12-13T06:36:47.265Z,-9.51
2022-12-13T06:37:47.190Z,-9.48
2022-12-13T06:38:47.084Z,-9.44
2022-12-13T06:39:46.985Z,-9.41
2022-12-13T06:40:46.900Z,-9.52
2022-12-13T06:41:46.803Z,-9.48
2022-12-13T06:42:46.717Z,-9.52
2022-12-13T06:43:46.622Z,-9.51
2022-12-13T06:44:46.529Z,-9.44
2022-12-13T06:45:46.447Z,-9.51
2022-12-13T06:46:46.342Z,-9.51
2022-12-13T06:47:46.255Z,-9.57
2022-12-13T06:48:46.164Z,-9.47
2022-12-13T06:49:46.379Z,-9.45
2022-12-13T06:50:45.973Z,-9.47
2022-12-13T06:51:45.884Z,-9.47
2022-12-13T06:52:45.792Z,-9.39
2022-12-13T06:53:45.696Z,-9.45
2022-12-13T06:54:45.605Z,-9.45
2022-12-13T06:55:45.516Z,-9.36
2022-12-13T06:56:45.421Z,-9.33
2022-12-13T06:57:45.329Z,-9.36
2022-12-13T06:58:45.242Z,-9.39
2022-12-13T06:59:45.329Z,-9.41
2022-12-13T07:00:48.757Z,-9.48
2022-12-13T07:01:44.986Z,-9.48
2022-12-13T07:02:44.998Z,-9.39
2022-12-13T07:03:44.775Z,-9.48
2022-12-13T07:04:44.682Z,-9.35
2022-12-13T07:05:44.590Z,-9.41
2022-12-13T07:06:44.499Z,-9.49
2022-12-13T07:07:44.436Z,-9.49
2022-12-13T07:08:44.317Z,-9.48
2022-12-13T07:09:44.371Z,-9.51
2022-12-13T07:10:44.133Z,-9.45
2022-12-13T07:11:49.924Z,-9.51
2022-12-13T07:12:43.945Z,-9.54
2022-12-13T07:13:43.872Z,-9.49
2022-12-13T07:14:43.771Z,-9.47
2022-12-13T07:15:43.720Z,-9.54
2022-12-13T07:16:43.577Z,-9.49
2022-12-13T07:17:43.482Z,-9.48
2022-12-13T07:18:43.392Z,-9.52
2022-12-13T07:19:43.777Z,-9.52
2022-12-13T07:20:43.209Z,-9.54
2022-12-13T07:21:43.113Z,-9.49
2022-12-13T07:22:47.165Z,-9.48
2022-12-13T07:23:42.936Z,-9.52
2022-12-13T07:24:42.840Z,-9.44
2022-12-13T07:25:42.746Z,-9.47
2022-12-13T07:26:42.652Z,-9.47
2022-12-13T07:27:42.563Z,-9.45
2022-12-13T07:28:42.470Z,-9.44
2022-12-13T07:29:42.635Z,-9.55
2022-12-13T07:30:42.291Z,-9.41
2022-12-13T07:31:42.229Z,-9.33
2022-12-13T07:32:42.100Z,-9.25
2022-12-13T07:33:42.011Z,-9.17
2022-12-13T07:34:41.922Z,-9.01
2022-12-13T07:35:41.824Z,-8.96
2022-12-13T07:36:41.745Z,-8.79
2022-12-13T07:37:41.637Z,-8.75
2022-12-13T07:38:41.552Z,-8.66
2022-12-13T07:39:41.460Z,-8.51
2022-12-13T07:40:41.487Z,-8.40
2022-12-13T07:41:41.273Z,-8.20
2022-12-13T07:42:41.177Z,-8.10
2022-12-13T07:43:41.087Z,-7.94
2022-12-13T07:44:40.996Z,-7.90
2022-12-13T07:45:40.902Z,-7.83
2022-12-13T07:46:40.865Z,-7.68
2022-12-13T07:47:40.721Z,-7.69
2022-12-13T07:48:40.626Z,-7.58
2022-12-13T07:49:40.534Z,-7.61
2022-12-13T07:50:40.445Z,-7.44
2022-12-13T07:51:40.349Z,-7.40
2022-12-13T07:52:40.268Z,-7.28
2022-12-13T07:53:40.168Z,-7.22
2022-12-13T07:54:40.076Z,-7.14
2022-12-13T07:55:40.007Z,-7.07
2022-12-13T07:56:39.889Z,-6.91
2022-12-13T07:57:39.799Z,-6.81
2022-12-13T07:58:39.710Z,-6.79
2022-12-13T07:59:39.616Z,-6.69
2022-12-13T08:00:39.527Z,-6.43
2022-12-13T08:01:39.480Z,-6.41
2022-12-13T08:02:39.350Z,-6.44
2022-12-13T08:03:39.253Z,-6.29
2022-12-13T08:04:39.226Z,-6.23
2022-12-13T08:05:39.415Z,-6.05
2022-12-13T08:06:38.985Z,-5.96
2022-12-13T08:07:38.885Z,-5.97
2022-12-13T08:08:38.837Z,-5.79
2022-12-13T08:09:38.699Z,-5.75
2022-12-13T08:10:38.609Z,-5.71
2022-12-13T08:11:38.527Z,-5.68
2022-12-13T08:12:38.429Z,-5.52
2022-12-13T08:13:38.334Z,-5.40
2022-12-13T08:14:38.247Z,-5.21
2022-12-13T08:15:38.155Z,-5.00
2022-12-13T08:16:38.102Z,-4.96
2022-12-13T08:17:37.970Z,-4.76
2022-12-13T08:18:37.881Z,-4.61
2022-12-13T08:19:37.798Z,-4.39
2022-12-13T08:20:37.697Z,-4.39
2022-12-13T08:21:53.944Z,-4.33
2022-12-13T08:22:37.519Z,-4.43
2022-12-13T08:23:37.424Z,-4.43
2022-12-13T08:24:37.335Z,-4.53
2022-12-13T08:25:37.245Z,-4.53
2022-12-13T08:26:37.155Z,-4.45
2022-12-13T08:27:37.068Z,-4.35
2022-12-13T08:28:36.973Z,-4.36
2022-12-13T08:29:36.893Z,-4.19
2022-12-13T08:30:36.793Z,-4.29
2022-12-13T08:31:36.777Z,-4.14
2022-12-13T08:32:36.617Z,-3.96
2022-12-13T08:33:36.521Z,-3.82
2022-12-13T08:34:36.441Z,-3.63
2022-12-13T08:35:36.347Z,-3.48
2022-12-13T08:36:36.253Z,-3.43
2022-12-13T08:37:36.157Z,-3.40
2022-12-13T08:38:36.069Z,-3.49
2022-12-13T08:39:36.573Z,-3.60
2022-12-13T08:40:35.889Z,-3.53
2022-12-13T08:41:39.037Z,-3.43
2022-12-13T08:42:35.714Z,-3.34
2022-12-13T08:43:35.629Z,-3.22
2022-12-13T08:44:35.530Z,-3.16
2022-12-13T08:45:35.460Z,-3.06
2022-12-13T08:46:35.381Z,-2.93
2022-12-13T08:47:41.341Z,-2.86
2022-12-13T08:48:35.283Z,-2.83
2022-12-13T08:49:35.083Z,-2.85
2022-12-13T08:50:34.989Z,-2.64
2022-12-13T08:51:35.687Z,-2.57
2022-12-13T08:52:39.540Z,-2.56
2022-12-13T08:53:40.581Z,-2.42
2022-12-13T08:54:34.632Z,-2.35
2022-12-13T08:55:34.546Z,-2.34
2022-12-13T08:56:34.462Z,-2.16
2022-12-13T08:57:34.365Z,-2.13
2022-12-13T08:58:34.273Z,-2.16
2022-12-13T08:59:34.190Z,-2.13
2022-12-13T09:00:36.186Z,-2.06
2022-12-13T09:01:34.007Z,-2.07
2022-12-13T09:02:38.065Z,-2.06
2022-12-13T09:03:33.828Z,-1.99
2022-12-13T09:04:33.744Z,-2.01
2022-12-13T09:05:35.108Z,-1.92
2022-12-13T09:06:33.563Z,-1.94
2022-12-13T09:07:33.478Z,-1.84
2022-12-13T09:08:35.041Z,-1.89
2022-12-13T09:09:33.298Z,-1.63
2022-12-13T09:10:38.211Z,-1.59
2022-12-13T09:11:39.726Z,-1.55
2022-12-13T09:12:33.032Z,-1.58
2022-12-13T09:13:33.639Z,-1.44
2022-12-13T09:14:34.287Z,-1.37
2022-12-13T09:15:34.560Z,-1.48
2022-12-13T09:16:36.194Z,-1.53
2022-12-13T09:17:36.329Z,-1.55
2022-12-13T09:18:36.439Z,-1.42
2022-12-13T09:19:37.183Z,-1.38
2022-12-13T09:20:32.395Z,-1.23
2022-12-13T09:21:32.345Z,-1.38
2022-12-13T09:22:33.567Z,-1.16
2022-12-13T09:23:32.060Z,-1.19
2022-12-13T09:24:35.864Z,-0.98
2022-12-13T09:25:37.337Z,-1.01
2022-12-13T09:26:38.262Z,-1.02
2022-12-13T09:27:40.046Z,-0.93
2022-12-13T09:28:31.615Z,-0.76
2022-12-13T09:29:31.525Z,-0.71
2022-12-13T09:30:31.763Z,-0.84
2022-12-13T09:31:31.396Z,-0.95
2022-12-13T09:32:31.265Z,-0.99
2022-12-13T09:33:31.412Z,-1.01
2022-12-13T09:34:31.135Z,-1.13
2022-12-13T09:35:31.002Z,-1.11
2022-12-13T09:36:30.914Z,-1.17
2022-12-13T09:37:30.825Z,-1.16
2022-12-13T09:38:30.733Z,-1.08
2022-12-13T09:39:30.648Z,-0.99
2022-12-13T09:40:30.639Z,-0.95
2022-12-13T09:41:30.488Z,-0.71
2022-12-13T09:42:31.218Z,-0.62
2022-12-13T09:43:32.435Z,-0.53
2022-12-13T09:44:32.503Z,-0.58
2022-12-13T09:45:32.100Z,-0.58
2022-12-13T09:46:34.354Z,-0.46
2022-12-13T09:47:35.008Z,-0.40
2022-12-13T09:48:30.190Z,-0.43
2022-12-13T09:49:35.127Z,-0.43
2022-12-13T09:50:29.678Z,-0.35
2022-12-13T09:51:41.426Z,-0.37
2022-12-13T09:52:33.289Z,-0.38
2022-12-13T09:53:34.027Z,-0.30
2022-12-13T09:54:29.330Z,-0.35
2022-12-13T09:55:29.244Z,-0.38
2022-12-13T09:56:29.162Z,-0.32
2022-12-13T09:57:30.891Z,-0.30
2022-12-13T09:58:28.985Z,-0.28
2022-12-13T09:59:28.896Z,-0.26
2022-12-13T10:00:28.804Z,-0.29
2022-12-13T10:01:28.822Z,-0.32
2022-12-13T10:02:28.731Z,-0.22
2022-12-13T10:03:28.546Z,-0.17
2022-12-13T10:04:28.457Z,-0.25
2022-12-13T10:05:37.326Z,-0.32
2022-12-13T10:06:28.281Z,-0.23
2022-12-13T10:07:28.198Z,-0.11
2022-12-13T10:08:28.118Z,-0.20
2022-12-13T10:09:28.021Z,-0.12
2022-12-13T10:10:27.939Z,-0.12
2022-12-13T10:11:31.677Z,-0.08
2022-12-13T10:12:27.763Z,-0.11
2022-12-13T10:13:27.672Z,-0.15
2022-12-13T10:14:27.587Z,-0.32
2022-12-13T10:15:27.504Z,-0.47
2022-12-13T10:16:27.448Z,-0.61
2022-12-13T10:17:27.331Z,-0.71
2022-12-13T10:18:27.242Z,-0.66
2022-12-13T10:19:28.749Z,-0.68
2022-12-13T10:20:27.067Z,-0.69
2022-12-13T10:21:26.980Z,-0.77
2022-12-13T10:22:26.891Z,-0.64
2022-12-13T10:23:52.927Z,-0.58
2022-12-13T10:24:32.962Z,-0.68
2022-12-13T10:25:26.634Z,-0.68
2022-12-13T10:26:26.614Z,-0.71
2022-12-13T10:27:26.460Z,-0.65
2022-12-13T10:28:26.368Z,-0.61
2022-12-13T10:29:26.281Z,-0.54
2022-12-13T10:30:29.021Z,-0.47
2022-12-13T10:31:26.172Z,-0.38
2022-12-13T10:32:26.020Z,-0.41
2022-12-13T10:33:26.208Z,-0.56
2022-12-13T10:34:25.856Z,-0.58
2022-12-13T10:35:25.762Z,-0.53
2022-12-13T10:36:26.648Z,-0.51
2022-12-13T10:37:25.590Z,-0.47
2022-12-13T10:38:31.560Z,-0.38
2022-12-13T10:39:25.412Z,-0.20
2022-12-13T10:40:32.006Z,-0.10
2022-12-13T10:41:25.243Z,-0.08
2022-12-13T10:42:29.240Z,-0.26
2022-12-13T10:43:25.322Z,-0.40
2022-12-13T10:44:24.981Z,-0.38
2022-12-13T10:45:24.892Z,-0.40
2022-12-13T10:46:25.513Z,-0.41
2022-12-13T10:47:24.722Z,-0.33
2022-12-13T10:48:24.636Z,-0.37
2022-12-13T10:49:24.548Z,-0.22
2022-12-13T10:50:24.464Z,-0.20
2022-12-13T10:51:24.379Z,-0.17
2022-12-13T10:52:30.821Z,-0.25
2022-12-13T10:53:24.452Z,-0.25
2022-12-13T10:54:24.117Z,-0.28
2022-12-13T10:55:24.179Z,-0.33
2022-12-13T10:56:24.125Z,-0.37
2022-12-13T10:57:23.856Z,-0.35
2022-12-13T10:58:23.762Z,-0.37
2022-12-13T10:59:23.682Z,-0.29
2022-12-13T11:00:23.593Z,-0.10
2022-12-13T11:01:23.555Z,-0.11
2022-12-13T11:02:23.450Z,-0.07
2022-12-13T11:03:23.643Z,0.03
2022-12-13T11:04:27.402Z,0.14
2022-12-13T11:05:23.562Z,0.04
2022-12-13T11:06:23.076Z,0.03
2022-12-13T11:07:22.991Z,0.21
2022-12-13T11:08:23.482Z,0.27
2022-12-13T11:09:23.642Z,0.34
2022-12-13T11:10:27.021Z,0.32
2022-12-13T11:11:22.643Z,0.24
2022-12-13T11:12:22.556Z,0.04
2022-12-13T11:13:22.690Z,0.06
2022-12-13T11:14:31.921Z,0.14
2022-12-13T11:15:23.097Z,0.17
2022-12-13T11:16:22.249Z,0.25
2022-12-13T11:17:22.126Z,0.18
2022-12-13T11:18:22.412Z,0.31
2022-12-13T11:19:21.995Z,0.28
2022-12-13T11:20:21.862Z,0.24
2022-12-13T11:21:21.776Z,0.27
2022-12-13T11:22:21.689Z,0.29
2022-12-13T11:23:21.604Z,0.32
2022-12-13T11:24:23.027Z,0.32
2022-12-13T11:25:21.430Z,0.31
2022-12-13T11:26:24.580Z,0.32
2022-12-13T11:27:21.265Z,0.34
2022-12-13T11:28:26.604Z,0.32
2022-12-13T11:29:21.087Z,0.35
2022-12-13T11:30:21.000Z,0.31
2022-12-13T11:31:20.949Z,0.36
2022-12-13T11:32:22.419Z,0.46
2022-12-13T11:33:20.746Z,0.49
2022-12-13T11:34:20.656Z,0.59
2022-12-13T11:35:20.570Z,0.61
2022-12-13T11:36:20.483Z,0.77
2022-12-13T11:37:20.394Z,0.84
2022-12-13T11:38:20.306Z,0.93
2022-12-13T11:39:20.228Z,0.94
2022-12-13T11:40:20.137Z,0.93
2022-12-13T11:41:32.415Z,0.94
2022-12-13T11:42:19.965Z,0.92
2022-12-13T11:43:19.880Z,0.83
2022-12-13T11:44:19.797Z,0.87
2022-12-13T11:45:23.045Z,0.80
2022-12-13T11:46:19.671Z,0.72
2022-12-13T11:47:19.536Z,0.62
2022-12-13T11:48:19.447Z,0.56
2022-12-13T11:49:19.368Z,0.53
2022-12-13T11:50:33.473Z,0.43
2022-12-13T11:51:19.190Z,0.27
2022-12-13T11:52:19.107Z,0.17
2022-12-13T11:53:19.090Z,0.04
2022-12-13T11:54:24.252Z,0.17
2022-12-13T11:55:18.847Z,0.21
2022-12-13T11:56:18.761Z,0.13
2022-12-13T11:57:18.673Z,0.09
2022-12-13T11:58:32.500Z,0.09
2022-12-13T11:59:25.869Z,-0.08
2022-12-13T12:00:34.098Z,-0.04
2022-12-13T12:01:18.330Z,-0.12
2022-12-13T12:02:18.378Z,-0.02
2022-12-13T12:03:18.233Z,0.01
2022-12-13T12:04:18.075Z,0.03
2022-12-13T12:05:17.985Z,0.10
2022-12-13T12:06:17.898Z,-0.01
2022-12-13T12:07:32.387Z,0.27
2022-12-13T12:08:33.562Z,0.36
2022-12-13T12:09:17.641Z,0.39
2022-12-13T12:10:17.551Z,0.43
2022-12-13T12:11:17.466Z,0.52
2022-12-13T12:12:22.191Z,0.50
2022-12-13T12:13:17.296Z,0.53
2022-12-13T12:14:17.206Z,0.57
2022-12-13T12:15:17.127Z,0.53
2022-12-13T12:16:17.103Z,0.49
2022-12-13T12:17:16.954Z,0.46
2022-12-13T12:18:16.864Z,0.31
2022-12-13T12:19:16.781Z,0.42
2022-12-13T12:20:23.378Z,0.45
2022-12-13T12:21:16.601Z,0.32
2022-12-13T12:22:16.543Z,0.22
2022-12-13T12:23:16.435Z,0.29
2022-12-13T12:24:16.343Z,0.35
2022-12-13T12:25:16.258Z,0.46
2022-12-13T12:26:16.170Z,0.43
2022-12-13T12:27:22.496Z,0.39
2022-12-13T12:28:15.996Z,0.45
2022-12-13T12:29:15.918Z,0.49
2022-12-13T12:30:23.064Z,0.43
2022-12-13T12:31:15.776Z,0.28
2022-12-13T12:32:15.658Z,0.39
2022-12-13T12:33:15.567Z,0.35
2022-12-13T12:34:15.480Z,0.35
2022-12-13T12:35:15.403Z,0.35
2022-12-13T12:36:15.313Z,0.31
2022-12-13T12:37:15.230Z,0.32
2022-12-13T12:38:15.136Z,0.46
2022-12-13T12:39:15.056Z,0.39
2022-12-13T12:40:14.963Z,0.35
2022-12-13T12:41:16.559Z,0.46
2022-12-13T12:42:14.793Z,0.46
2022-12-13T12:43:16.041Z,0.49
2022-12-13T12:44:14.617Z,0.45
2022-12-13T12:45:27.003Z,0.40
2022-12-13T12:46:14.469Z,0.40
2022-12-13T12:49:14.232Z,0.27
2022-12-13T12:50:14.108Z,0.25
2022-12-13T12:51:14.021Z,0.18
2022-12-13T12:52:13.934Z,0.36
2022-12-13T12:53:13.844Z,0.35
2022-12-13T12:54:13.753Z,0.47
2022-12-13T12:55:13.672Z,0.57
2022-12-13T12:56:13.587Z,0.53
2022-12-13T12:57:13.496Z,0.61